Terminal Aerodrome Forecast
Issued by NWS Missoula, MT

Home | Current Version | Previous Version | Text Only | Print | Product List | Glossary On
Versions: 1 2 3 4 5 6 7 8 9 10 11 12 13
158
FTUS45 KMSO 081128
TAFMSO
TAF
KMSO 081128Z 0812/0912 10008KT P6SM SCT060
     FM090600 12013KT P6SM -SN OVC050
     FM090800 12014G20KT 2SM -SN OVC020=

USA.gov is the U.S. government's official web portal to all federal, state and local government web resources and services.